createdAt,value
2019-06-07T00:01:29.871Z,14.60
2019-06-07T00:05:32.768Z,14.40
2019-06-07T00:09:35.657Z,14.40
2019-06-07T00:13:38.583Z,14.50
2019-06-07T00:17:41.526Z,14.50
2019-06-07T00:25:52.259Z,14.60
2019-06-07T00:29:55.488Z,14.60
2019-06-07T00:33:58.364Z,14.60
2019-06-07T00:38:01.314Z,14.40
2019-06-07T00:42:07.036Z,14.40
2019-06-07T00:46:14.093Z,14.40
2019-06-07T00:50:16.381Z,14.30
2019-06-07T00:54:21.554Z,14.30
2019-06-07T00:58:27.630Z,14.30
2019-06-07T01:02:31.395Z,14.30
2019-06-07T01:06:33.603Z,14.40
2019-06-07T01:10:52.890Z,14.50
2019-06-07T01:14:41.275Z,14.40
2019-06-07T01:18:46.856Z,14.60
2019-06-07T01:22:54.954Z,14.50
2019-06-07T01:27:00.849Z,14.60
2019-06-07T01:31:03.767Z,14.60
2019-06-07T01:35:06.923Z,14.60
2019-06-07T01:39:09.805Z,14.40
2019-06-07T01:43:12.647Z,14.40
2019-06-07T01:47:21.181Z,14.30
2019-06-07T01:51:27.897Z,14.40
2019-06-07T01:55:32.782Z,14.40
2019-06-07T01:59:35.527Z,14.60
2019-06-07T02:03:38.425Z,14.50
2019-06-07T02:07:44.093Z,14.50
2019-06-07T02:11:48.129Z,14.50
2019-06-07T02:15:51.009Z,14.70
2019-06-07T02:19:54.008Z,14.50
2019-06-07T02:23:56.851Z,14.40
2019-06-07T02:28:25.976Z,14.50
2019-06-07T02:32:04.446Z,14.60
2019-06-07T02:36:07.360Z,14.40
2019-06-07T02:40:10.922Z,14.50
2019-06-07T02:44:13.879Z,14.20
2019-06-07T02:48:16.892Z,14.20
2019-06-07T02:52:19.757Z,14.20
2019-06-07T02:56:54.174Z,14.00
2019-06-07T03:01:06.903Z,13.80
2019-06-07T03:05:06.709Z,13.60
2019-06-07T03:09:09.606Z,13.70
2019-06-07T03:13:16.639Z,13.60
2019-06-07T03:17:45.586Z,13.40
2019-06-07T03:21:50.905Z,13.50
2019-06-07T03:25:54.254Z,13.40
2019-06-07T03:30:00.021Z,13.40
2019-06-07T03:34:02.865Z,13.00
2019-06-07T03:38:05.752Z,13.10
2019-06-07T03:42:11.450Z,13.30
2019-06-07T03:46:14.319Z,13.30
2019-06-07T03:50:17.319Z,13.40
2019-06-07T03:54:20.559Z,13.70
2019-06-07T03:58:34.714Z,13.70
2019-06-07T04:02:30.219Z,13.70
2019-06-07T04:06:36.153Z,13.70
2019-06-07T04:10:55.918Z,13.70
2019-06-07T04:14:45.551Z,13.70
2019-06-07T04:18:48.475Z,13.70
2019-06-07T04:22:51.372Z,13.60
2019-06-07T04:26:54.262Z,13.70
2019-06-07T04:30:57.177Z,13.80
2019-06-07T04:35:03.735Z,13.70
2019-06-07T04:39:07.691Z,14.00
2019-06-07T04:43:10.888Z,14.10
2019-06-07T04:47:15.544Z,14.10
2019-06-07T04:51:20.414Z,14.10
2019-06-07T04:55:23.474Z,14.20
2019-06-07T05:00:04.309Z,14.30
2019-06-07T05:03:35.012Z,14.20
2019-06-07T05:07:40.871Z,14.20
2019-06-07T05:11:45.070Z,14.20
2019-06-07T05:15:48.152Z,14.50
2019-06-07T05:19:51.028Z,14.30
2019-06-07T05:24:07.630Z,14.30
2019-06-07T05:28:10.596Z,14.40
2019-06-07T05:32:14.241Z,14.30
2019-06-07T05:36:17.095Z,14.40
2019-06-07T05:40:32.938Z,14.70
2019-06-07T05:44:36.520Z,14.80
2019-06-07T05:48:41.681Z,14.80
2019-06-07T05:52:47.398Z,14.80
2019-06-07T05:56:49.146Z,15.00
2019-06-07T06:00:52.059Z,15.10
2019-06-07T06:04:54.952Z,15.10
2019-06-07T06:09:13.432Z,15.10
2019-06-07T06:13:05.489Z,15.10
2019-06-07T06:17:09.390Z,14.80
2019-06-07T06:21:19.133Z,15.00
2019-06-07T06:25:31.590Z,15.40
2019-06-07T06:29:24.935Z,15.60
2019-06-07T06:33:34.391Z,15.70
2019-06-07T06:37:38.037Z,15.70
2019-06-07T06:41:50.632Z,15.80
2019-06-07T06:45:49.687Z,16.00
2019-06-07T06:49:54.127Z,16.00
2019-06-07T06:53:54.851Z,16.10
2019-06-07T06:57:58.089Z,16.20
2019-06-07T07:02:00.970Z,16.20
2019-06-07T07:06:24.764Z,16.30
2019-06-07T07:10:09.831Z,16.50
2019-06-07T07:14:13.090Z,16.60
2019-06-07T07:18:19.089Z,16.70
2019-06-07T07:22:21.991Z,16.70
2019-06-07T07:26:24.926Z,16.70
2019-06-07T07:30:54.878Z,16.60
2019-06-07T07:34:58.094Z,16.90
2019-06-07T07:39:04.131Z,17.00
2019-06-07T07:43:01.273Z,17.00
2019-06-07T07:47:04.274Z,17.20
2019-06-07T07:51:07.158Z,17.10
2019-06-07T07:55:10.105Z,17.20
2019-06-07T07:59:16.004Z,16.80
2019-06-07T08:03:18.920Z,17.00
2019-06-07T08:07:28.287Z,17.00
2019-06-07T08:11:31.274Z,17.20
2019-06-07T08:15:36.911Z,17.30
2019-06-07T08:19:47.611Z,17.50
2019-06-07T08:23:55.370Z,17.50
2019-06-07T08:27:57.081Z,17.40
2019-06-07T08:32:00.953Z,17.40
2019-06-07T08:36:15.087Z,17.50
2019-06-07T08:40:09.554Z,17.70
2019-06-07T08:44:23.368Z,17.80
2019-06-07T08:48:27.782Z,18.00
2019-06-07T08:52:26.693Z,18.00
2019-06-07T08:56:29.638Z,18.20
2019-06-07T09:00:48.237Z,18.30
2019-06-07T09:04:37.401Z,18.20
2019-06-07T09:08:40.290Z,18.50
2019-06-07T09:12:45.228Z,18.80
2019-06-07T09:16:47.917Z,18.50
2019-06-07T09:20:51.221Z,18.70
2019-06-07T09:25:00.230Z,18.70
2019-06-07T09:29:01.360Z,19.00
2019-06-07T09:33:06.926Z,19.20
2019-06-07T09:38:02.761Z,19.30
2019-06-07T09:41:17.346Z,19.30
2019-06-07T09:45:23.347Z,19.50
2019-06-07T09:49:33.470Z,19.60
2019-06-07T09:53:36.762Z,19.70
2019-06-07T09:57:39.691Z,19.80
2019-06-07T10:01:42.595Z,19.90
2019-06-07T10:05:48.494Z,20.00
2019-06-07T10:13:56.487Z,20.40
2019-06-07T10:18:02.790Z,20.50
2019-06-07T10:22:06.076Z,20.50
2019-06-07T10:26:10.399Z,20.80
2019-06-07T10:30:16.111Z,20.90
2019-06-07T10:34:25.140Z,21.10
2019-06-07T10:38:28.147Z,21.10
2019-06-07T10:42:31.021Z,21.40
2019-06-07T10:46:33.911Z,21.40
2019-06-07T10:50:39.643Z,21.50
2019-06-07T10:54:42.519Z,21.70
2019-06-07T10:58:45.413Z,21.90
2019-06-07T11:02:48.320Z,21.80
2019-06-07T11:06:54.244Z,21.90
2019-06-07T11:10:59.244Z,21.90
2019-06-07T11:15:06.668Z,22.30
2019-06-07T11:19:15.739Z,22.40
2019-06-07T11:23:18.570Z,22.60
2019-06-07T11:27:21.615Z,22.70
2019-06-07T11:31:24.545Z,22.80
2019-06-07T11:35:33.521Z,22.80
2019-06-07T11:39:37.719Z,22.80
2019-06-07T11:43:40.645Z,22.70
2019-06-07T11:47:43.539Z,22.90
2019-06-07T11:51:46.419Z,23.20
2019-06-07T11:55:49.326Z,23.30
2019-06-07T11:59:53.323Z,23.40
2019-06-07T12:03:58.880Z,23.50
2019-06-07T12:08:01.885Z,23.40
2019-06-07T12:12:04.873Z,23.50
2019-06-07T12:16:08.982Z,23.70
2019-06-07T12:20:14.524Z,23.80
2019-06-07T12:24:19.311Z,23.80
2019-06-07T12:28:21.850Z,23.80
2019-06-07T12:32:30.913Z,23.80
2019-06-07T12:36:33.822Z,24.10
2019-06-07T12:40:37.224Z,24.30
2019-06-07T12:44:40.152Z,24.10
2019-06-07T12:48:43.066Z,22.80
2019-06-07T12:52:45.939Z,23.60
2019-06-07T12:56:52.494Z,23.90
2019-06-07T13:00:59.489Z,24.20
2019-06-07T13:05:04.546Z,24.10
2019-06-07T13:09:05.937Z,23.40
2019-06-07T13:13:08.850Z,23.30
2019-06-07T13:17:11.787Z,24.00
2019-06-07T13:21:16.053Z,24.20
2019-06-07T13:25:25.845Z,24.00
2019-06-07T13:29:30.063Z,24.20
2019-06-07T13:33:38.221Z,24.80
2019-06-07T13:37:37.504Z,25.10
2019-06-07T13:41:43.137Z,25.40
2019-06-07T13:45:45.295Z,25.70
2019-06-07T13:49:48.225Z,25.90
2019-06-07T13:53:51.125Z,26.80
2019-06-07T13:57:54.016Z,27.80
2019-06-07T14:02:03.026Z,29.40
2019-06-07T14:06:05.916Z,30.40
2019-06-07T14:10:12.402Z,30.10
2019-06-07T14:14:15.292Z,29.90
2019-06-07T14:18:22.507Z,30.30
2019-06-07T14:22:26.865Z,31.70
2019-06-07T14:26:29.926Z,29.50
2019-06-07T14:30:32.839Z,30.40
2019-06-07T14:34:36.839Z,27.40
2019-06-07T14:38:39.763Z,26.50
2019-06-07T14:42:42.669Z,26.10
2019-06-07T14:46:45.544Z,25.60
2019-06-07T14:50:48.456Z,25.40
2019-06-07T14:54:51.355Z,25.50
2019-06-07T14:58:54.246Z,25.30
2019-06-07T15:02:57.168Z,25.30
2019-06-07T15:07:00.067Z,25.10
2019-06-07T15:11:12.007Z,25.00
2019-06-07T15:15:15.027Z,25.00
2019-06-07T15:19:23.963Z,25.00
2019-06-07T15:23:27.017Z,25.00
2019-06-07T15:27:31.228Z,24.90
2019-06-07T15:31:34.603Z,24.90
2019-06-07T15:35:39.158Z,24.80
2019-06-07T15:39:42.208Z,24.30
2019-06-07T15:43:45.307Z,24.20
2019-06-07T15:47:48.188Z,24.10
2019-06-07T15:51:51.057Z,23.80
2019-06-07T15:55:54.411Z,24.10
2019-06-07T15:59:58.470Z,24.00
2019-06-07T16:04:01.450Z,24.10
2019-06-07T16:08:07.253Z,24.10
2019-06-07T16:12:10.143Z,24.10
2019-06-07T16:16:16.236Z,24.20
2019-06-07T16:20:25.103Z,24.10
2019-06-07T16:24:28.021Z,24.10
2019-06-07T16:28:30.941Z,24.10
2019-06-07T16:32:34.973Z,24.20
2019-06-07T16:36:38.360Z,24.20
2019-06-07T16:40:42.431Z,24.10
2019-06-07T16:44:48.958Z,24.00
2019-06-07T16:48:51.931Z,24.00
2019-06-07T16:52:54.826Z,24.00
2019-06-07T16:56:57.790Z,23.90
2019-06-07T17:01:00.697Z,23.90
2019-06-07T17:05:10.111Z,23.80
2019-06-07T17:09:13.042Z,23.80
2019-06-07T17:13:33.061Z,23.80
2019-06-07T17:17:26.535Z,23.80
2019-06-07T17:21:29.401Z,23.70
2019-06-07T17:25:32.471Z,23.70
2019-06-07T17:29:35.311Z,23.70
2019-06-07T17:33:41.946Z,23.60
2019-06-07T17:37:46.351Z,23.60
2019-06-07T17:41:59.923Z,23.50
2019-06-07T17:45:54.569Z,23.40
2019-06-07T17:49:57.461Z,23.40
2019-06-07T17:54:00.360Z,23.30
2019-06-07T17:58:03.314Z,23.30
2019-06-07T18:02:14.843Z,23.30
2019-06-07T18:06:14.806Z,23.30
2019-06-07T18:10:32.989Z,23.20
2019-06-07T18:14:39.163Z,23.20
2019-06-07T18:18:42.067Z,23.20
2019-06-07T18:22:45.109Z,23.20
2019-06-07T18:26:48.449Z,23.20
2019-06-07T18:30:51.364Z,23.10
2019-06-07T18:34:55.078Z,23.10
2019-06-07T18:39:00.996Z,23.10
2019-06-07T18:43:03.968Z,23.10
2019-06-07T18:47:06.904Z,23.10
2019-06-07T18:51:09.876Z,23.00
2019-06-07T18:55:16.144Z,22.90
2019-06-07T18:59:19.064Z,22.80
2019-06-07T19:03:22.408Z,22.60
2019-06-07T19:07:25.720Z,22.50
2019-06-07T19:11:28.658Z,22.30
2019-06-07T19:15:33.492Z,22.30
2019-06-07T19:19:36.399Z,22.10
2019-06-07T19:23:39.720Z,22.10
2019-06-07T19:27:42.596Z,22.00
2019-06-07T19:31:45.542Z,21.90
2019-06-07T19:35:48.460Z,21.70
2019-06-07T19:39:51.730Z,21.70
2019-06-07T19:43:54.742Z,21.60
2019-06-07T19:47:58.686Z,21.40
2019-06-07T19:52:01.678Z,21.40
2019-06-07T19:56:04.948Z,21.20
2019-06-07T20:00:14.143Z,21.30
2019-06-07T20:04:12.960Z,21.10
2019-06-07T20:08:15.914Z,21.20
2019-06-07T20:12:19.659Z,21.10
2019-06-07T20:16:22.580Z,21.00
2019-06-07T20:20:30.128Z,20.80
2019-06-07T20:24:33.118Z,20.70
2019-06-07T20:28:39.160Z,20.60
2019-06-07T20:32:42.087Z,20.50
2019-06-07T20:36:47.778Z,20.50
2019-06-07T20:40:50.626Z,20.50
2019-06-07T20:44:53.536Z,20.50
2019-06-07T20:48:56.429Z,20.60
2019-06-07T20:53:01.176Z,20.30
2019-06-07T20:57:04.781Z,20.40
2019-06-07T21:01:08.916Z,20.30
2019-06-07T21:05:12.259Z,20.30
2019-06-07T21:09:18.179Z,20.30
2019-06-07T21:13:21.074Z,20.10
2019-06-07T21:17:23.950Z,20.00
2019-06-07T21:21:26.876Z,19.90
2019-06-07T21:25:29.726Z,19.90
2019-06-07T21:29:32.620Z,20.00
2019-06-07T21:33:35.550Z,19.80
2019-06-07T21:37:38.441Z,19.60
2019-06-07T21:41:41.369Z,19.50
2019-06-07T21:45:44.240Z,19.20
2019-06-07T21:49:50.207Z,18.60
2019-06-07T21:53:56.216Z,18.30
2019-06-07T21:57:59.122Z,18.20
2019-06-07T22:02:05.413Z,18.20
2019-06-07T22:06:09.577Z,18.20
2019-06-07T22:10:12.860Z,17.90
2019-06-07T22:14:18.840Z,17.30
2019-06-07T22:18:21.776Z,16.90
2019-06-07T22:22:30.830Z,16.90
2019-06-07T22:26:33.759Z,17.00
2019-06-07T22:30:36.625Z,17.10
2019-06-07T22:34:39.460Z,17.00
2019-06-07T22:38:45.559Z,17.10
2019-06-07T22:42:48.618Z,17.20
2019-06-07T22:46:51.501Z,17.60
2019-06-07T22:50:54.435Z,17.80
2019-06-07T22:54:57.394Z,17.80
2019-06-07T22:59:00.292Z,17.70
2019-06-07T23:03:04.074Z,17.60
2019-06-07T23:07:06.970Z,17.50
2019-06-07T23:11:11.094Z,17.10
2019-06-07T23:15:15.193Z,17.00
2019-06-07T23:19:18.417Z,16.90
2019-06-07T23:23:21.276Z,16.90
2019-06-07T23:27:24.167Z,16.90
2019-06-07T23:31:27.053Z,16.90
2019-06-07T23:35:29.956Z,16.50
2019-06-07T23:39:37.461Z,16.40
2019-06-07T23:43:40.401Z,16.60
2019-06-07T23:47:43.257Z,16.70
2019-06-07T23:51:46.196Z,16.70
2019-06-07T23:55:49.131Z,16.90
2019-06-07T23:59:52.106Z,16.30
